sensor_id;sensor_type;location;lat;lon;timestamp;P1;durP1;ratioP1;P2;durP2;ratioP2
26696;SDS011;14312;52.614;13.496;2023-02-11T00:02:30;27.90;;;20.87;;
26696;SDS011;14312;52.614;13.496;2023-02-11T00:05:17;27.47;;;20.00;;
26696;SDS011;14312;52.614;13.496;2023-02-11T00:08:03;27.70;;;19.43;;
26696;SDS011;14312;52.614;13.496;2023-02-11T00:10:53;25.97;;;18.77;;
26696;SDS011;14312;52.614;13.496;2023-02-11T00:13:39;22.70;;;18.03;;
26696;SDS011;14312;52.614;13.496;2023-02-11T00:16:26;26.17;;;18.03;;
26696;SDS011;14312;52.614;13.496;2023-02-11T00:19:12;26.70;;;18.23;;
26696;SDS011;14312;52.614;13.496;2023-02-11T00:21:58;24.60;;;18.23;;
26696;SDS011;14312;52.614;13.496;2023-02-11T00:24:44;26.23;;;18.47;;
26696;SDS011;14312;52.614;13.496;2023-02-11T00:27:30;23.47;;;18.23;;
26696;SDS011;14312;52.614;13.496;2023-02-11T00:30:16;26.67;;;18.53;;
26696;SDS011;14312;52.614;13.496;2023-02-11T00:33:02;24.43;;;18.63;;
26696;SDS011;14312;52.614;13.496;2023-02-11T00:35:48;24.13;;;19.13;;
26696;SDS011;14312;52.614;13.496;2023-02-11T00:38:34;23.50;;;17.70;;
26696;SDS011;14312;52.614;13.496;2023-02-11T00:41:21;25.33;;;18.63;;
26696;SDS011;14312;52.614;13.496;2023-02-11T00:44:07;24.90;;;18.73;;
26696;SDS011;14312;52.614;13.496;2023-02-11T00:46:53;24.90;;;18.37;;
26696;SDS011;14312;52.614;13.496;2023-02-11T00:49:39;24.23;;;18.67;;
26696;SDS011;14312;52.614;13.496;2023-02-11T00:52:25;28.13;;;18.83;;
26696;SDS011;14312;52.614;13.496;2023-02-11T00:55:10;24.30;;;18.10;;
26696;SDS011;14312;52.614;13.496;2023-02-11T00:57:56;27.33;;;19.80;;
26696;SDS011;14312;52.614;13.496;2023-02-11T01:00:44;26.97;;;19.97;;
26696;SDS011;14312;52.614;13.496;2023-02-11T01:03:30;28.53;;;20.43;;
26696;SDS011;14312;52.614;13.496;2023-02-11T01:06:16;30.73;;;21.50;;
26696;SDS011;14312;52.614;13.496;2023-02-11T01:09:02;26.50;;;20.20;;
26696;SDS011;14312;52.614;13.496;2023-02-11T01:11:48;29.13;;;19.83;;
26696;SDS011;14312;52.614;13.496;2023-02-11T01:14:34;29.67;;;19.90;;
26696;SDS011;14312;52.614;13.496;2023-02-11T01:17:20;26.23;;;18.90;;
26696;SDS011;14312;52.614;13.496;2023-02-11T01:20:07;27.43;;;20.50;;
26696;SDS011;14312;52.614;13.496;2023-02-11T01:22:56;24.10;;;19.00;;
26696;SDS011;14312;52.614;13.496;2023-02-11T01:25:42;28.40;;;20.43;;
26696;SDS011;14312;52.614;13.496;2023-02-11T01:28:29;30.63;;;21.33;;
26696;SDS011;14312;52.614;13.496;2023-02-11T01:31:15;29.97;;;20.47;;
26696;SDS011;14312;52.614;13.496;2023-02-11T01:34:01;26.63;;;20.00;;
26696;SDS011;14312;52.614;13.496;2023-02-11T01:36:47;25.43;;;18.80;;
26696;SDS011;14312;52.614;13.496;2023-02-11T01:39:33;28.20;;;19.50;;
26696;SDS011;14312;52.614;13.496;2023-02-11T01:42:20;29.03;;;20.83;;
26696;SDS011;14312;52.614;13.496;2023-02-11T01:48:33;27.27;;;20.00;;
26696;SDS011;14312;52.614;13.496;2023-02-11T01:51:33;24.50;;;18.40;;
26696;SDS011;14312;52.614;13.496;2023-02-11T01:54:42;24.52;;;17.73;;
26696;SDS011;14312;52.614;13.496;2023-02-11T01:57:51;23.93;;;18.27;;
26696;SDS011;14312;52.614;13.496;2023-02-11T02:00:41;23.90;;;18.70;;
26696;SDS011;14312;52.614;13.496;2023-02-11T02:03:28;25.87;;;19.33;;
26696;SDS011;14312;52.614;13.496;2023-02-11T02:06:25;24.30;;;18.88;;
26696;SDS011;14312;52.614;13.496;2023-02-11T02:09:22;25.42;;;19.33;;
26696;SDS011;14312;52.614;13.496;2023-02-11T02:12:13;25.57;;;20.03;;
26696;SDS011;14312;52.614;13.496;2023-02-11T02:15:17;24.25;;;18.42;;
26696;SDS011;14312;52.614;13.496;2023-02-11T02:18:09;24.67;;;18.98;;
26696;SDS011;14312;52.614;13.496;2023-02-11T02:24:30;22.60;;;17.17;;
26696;SDS011;14312;52.614;13.496;2023-02-11T02:27:45;22.92;;;17.55;;
26696;SDS011;14312;52.614;13.496;2023-02-11T02:30:52;23.02;;;18.30;;
26696;SDS011;14312;52.614;13.496;2023-02-11T02:34:01;26.97;;;18.77;;
26696;SDS011;14312;52.614;13.496;2023-02-11T02:36:59;27.17;;;19.80;;
26696;SDS011;14312;52.614;13.496;2023-02-11T02:39:52;22.23;;;18.08;;
26696;SDS011;14312;52.614;13.496;2023-02-11T02:42:40;24.53;;;16.97;;
26696;SDS011;14312;52.614;13.496;2023-02-11T02:45:28;21.85;;;17.42;;
26696;SDS011;14312;52.614;13.496;2023-02-11T02:48:27;22.30;;;18.23;;
26696;SDS011;14312;52.614;13.496;2023-02-11T02:54:38;27.90;;;18.67;;
26696;SDS011;14312;52.614;13.496;2023-02-11T02:57:37;23.42;;;18.00;;
26696;SDS011;14312;52.614;13.496;2023-02-11T03:00:39;28.60;;;20.27;;
26696;SDS011;14312;52.614;13.496;2023-02-11T03:03:35;24.42;;;18.98;;
26696;SDS011;14312;52.614;13.496;2023-02-11T03:09:41;21.87;;;17.67;;
26696;SDS011;14312;52.614;13.496;2023-02-11T03:12:35;23.30;;;17.77;;
26696;SDS011;14312;52.614;13.496;2023-02-11T03:15:22;22.93;;;17.57;;
26696;SDS011;14312;52.614;13.496;2023-02-11T03:18:12;23.77;;;18.83;;
26696;SDS011;14312;52.614;13.496;2023-02-11T03:21:01;23.85;;;17.88;;
26696;SDS011;14312;52.614;13.496;2023-02-11T03:23:53;25.08;;;18.90;;
26696;SDS011;14312;52.614;13.496;2023-02-11T03:26:43;23.93;;;18.53;;
26696;SDS011;14312;52.614;13.496;2023-02-11T03:29:35;24.15;;;19.30;;
26696;SDS011;14312;52.614;13.496;2023-02-11T03:32:28;23.48;;;19.63;;
26696;SDS011;14312;52.614;13.496;2023-02-11T03:35:23;24.17;;;19.23;;
26696;SDS011;14312;52.614;13.496;2023-02-11T03:38:50;25.70;;;20.50;;
26696;SDS011;14312;52.614;13.496;2023-02-11T03:41:34;23.87;;;19.20;;
26696;SDS011;14312;52.614;13.496;2023-02-11T03:44:22;23.02;;;18.10;;
26696;SDS011;14312;52.614;13.496;2023-02-11T03:47:13;24.97;;;19.07;;
26696;SDS011;14312;52.614;13.496;2023-02-11T03:50:04;20.67;;;17.25;;
26696;SDS011;14312;52.614;13.496;2023-02-11T03:52:52;22.70;;;18.13;;
26696;SDS011;14312;52.614;13.496;2023-02-11T03:55:40;24.47;;;20.67;;
26696;SDS011;14312;52.614;13.496;2023-02-11T03:58:28;27.20;;;20.87;;
26696;SDS011;14312;52.614;13.496;2023-02-11T04:01:15;23.37;;;18.47;;
26696;SDS011;14312;52.614;13.496;2023-02-11T04:04:01;23.73;;;19.30;;
26696;SDS011;14312;52.614;13.496;2023-02-11T04:06:47;25.07;;;18.47;;
26696;SDS011;14312;52.614;13.496;2023-02-11T04:09:33;26.60;;;21.13;;
26696;SDS011;14312;52.614;13.496;2023-02-11T04:12:21;21.83;;;17.88;;
26696;SDS011;14312;52.614;13.496;2023-02-11T04:15:07;23.20;;;19.80;;
26696;SDS011;14312;52.614;13.496;2023-02-11T04:17:53;21.52;;;18.45;;
26696;SDS011;14312;52.614;13.496;2023-02-11T04:20:39;23.00;;;18.53;;
26696;SDS011;14312;52.614;13.496;2023-02-11T04:23:25;24.70;;;19.37;;
26696;SDS011;14312;52.614;13.496;2023-02-11T04:26:11;22.58;;;17.55;;
26696;SDS011;14312;52.614;13.496;2023-02-11T04:28:57;21.77;;;17.47;;
26696;SDS011;14312;52.614;13.496;2023-02-11T04:31:43;25.53;;;20.37;;
26696;SDS011;14312;52.614;13.496;2023-02-11T04:34:28;23.17;;;20.02;;
26696;SDS011;14312;52.614;13.496;2023-02-11T04:37:14;23.60;;;19.13;;
26696;SDS011;14312;52.614;13.496;2023-02-11T04:40:00;24.73;;;20.67;;
26696;SDS011;14312;52.614;13.496;2023-02-11T04:42:46;25.27;;;20.80;;
26696;SDS011;14312;52.614;13.496;2023-02-11T04:45:32;25.52;;;19.52;;
26696;SDS011;14312;52.614;13.496;2023-02-11T04:48:18;27.20;;;22.00;;
26696;SDS011;14312;52.614;13.496;2023-02-11T04:51:04;27.75;;;22.40;;
26696;SDS011;14312;52.614;13.496;2023-02-11T04:53:50;25.52;;;19.20;;
26696;SDS011;14312;52.614;13.496;2023-02-11T04:56:36;25.83;;;21.25;;
26696;SDS011;14312;52.614;13.496;2023-02-11T04:59:23;27.02;;;20.88;;
26696;SDS011;14312;52.614;13.496;2023-02-11T05:02:09;25.73;;;20.95;;
26696;SDS011;14312;52.614;13.496;2023-02-11T05:04:55;23.33;;;19.83;;
26696;SDS011;14312;52.614;13.496;2023-02-11T05:07:41;26.88;;;20.25;;
26696;SDS011;14312;52.614;13.496;2023-02-11T05:10:26;24.70;;;21.03;;
26696;SDS011;14312;52.614;13.496;2023-02-11T05:13:13;24.48;;;20.83;;
26696;SDS011;14312;52.614;13.496;2023-02-11T05:15:59;27.37;;;21.27;;
26696;SDS011;14312;52.614;13.496;2023-02-11T05:18:45;25.23;;;21.20;;
26696;SDS011;14312;52.614;13.496;2023-02-11T05:21:31;28.73;;;21.43;;
26696;SDS011;14312;52.614;13.496;2023-02-11T05:24:17;25.83;;;20.63;;
26696;SDS011;14312;52.614;13.496;2023-02-11T05:27:03;28.58;;;22.92;;
26696;SDS011;14312;52.614;13.496;2023-02-11T05:29:49;24.35;;;20.25;;
26696;SDS011;14312;52.614;13.496;2023-02-11T05:32:35;25.33;;;21.27;;
26696;SDS011;14312;52.614;13.496;2023-02-11T05:35:21;26.67;;;21.50;;
26696;SDS011;14312;52.614;13.496;2023-02-11T05:38:07;24.00;;;20.67;;
26696;SDS011;14312;52.614;13.496;2023-02-11T05:40:53;26.27;;;20.42;;
26696;SDS011;14312;52.614;13.496;2023-02-11T05:43:39;24.98;;;19.92;;
26696;SDS011;14312;52.614;13.496;2023-02-11T05:46:25;24.63;;;19.53;;
26696;SDS011;14312;52.614;13.496;2023-02-11T05:49:11;23.97;;;19.90;;
26696;SDS011;14312;52.614;13.496;2023-02-11T05:51:57;25.87;;;21.73;;
26696;SDS011;14312;52.614;13.496;2023-02-11T05:54:43;28.30;;;22.17;;
26696;SDS011;14312;52.614;13.496;2023-02-11T05:57:29;27.03;;;21.47;;
26696;SDS011;14312;52.614;13.496;2023-02-11T06:00:15;26.27;;;22.23;;
26696;SDS011;14312;52.614;13.496;2023-02-11T06:03:01;24.77;;;19.95;;
26696;SDS011;14312;52.614;13.496;2023-02-11T06:05:49;25.58;;;21.13;;
26696;SDS011;14312;52.614;13.496;2023-02-11T06:08:34;26.58;;;21.25;;
26696;SDS011;14312;52.614;13.496;2023-02-11T06:11:20;24.70;;;20.75;;
26696;SDS011;14312;52.614;13.496;2023-02-11T06:14:06;26.25;;;20.75;;
26696;SDS011;14312;52.614;13.496;2023-02-11T06:16:52;23.80;;;19.60;;
26696;SDS011;14312;52.614;13.496;2023-02-11T06:19:38;24.27;;;20.20;;
26696;SDS011;14312;52.614;13.496;2023-02-11T06:22:24;25.52;;;20.75;;
26696;SDS011;14312;52.614;13.496;2023-02-11T06:25:11;25.77;;;21.25;;
26696;SDS011;14312;52.614;13.496;2023-02-11T06:27:57;26.35;;;22.38;;
26696;SDS011;14312;52.614;13.496;2023-02-11T06:30:43;24.65;;;21.33;;
26696;SDS011;14312;52.614;13.496;2023-02-11T06:33:29;26.80;;;22.55;;
26696;SDS011;14312;52.614;13.496;2023-02-11T06:36:16;27.38;;;22.55;;
26696;SDS011;14312;52.614;13.496;2023-02-11T06:39:04;23.33;;;19.90;;
26696;SDS011;14312;52.614;13.496;2023-02-11T06:41:50;27.13;;;22.05;;
26696;SDS011;14312;52.614;13.496;2023-02-11T06:44:36;28.95;;;21.73;;
26696;SDS011;14312;52.614;13.496;2023-02-11T06:47:22;27.00;;;22.55;;
26696;SDS011;14312;52.614;13.496;2023-02-11T06:50:09;24.63;;;21.45;;
26696;SDS011;14312;52.614;13.496;2023-02-11T06:53:00;29.02;;;23.85;;
26696;SDS011;14312;52.614;13.496;2023-02-11T06:55:46;27.25;;;22.50;;
26696;SDS011;14312;52.614;13.496;2023-02-11T06:58:32;26.98;;;22.23;;
26696;SDS011;14312;52.614;13.496;2023-02-11T07:01:19;25.52;;;21.50;;
26696;SDS011;14312;52.614;13.496;2023-02-11T07:04:06;23.90;;;21.25;;
26696;SDS011;14312;52.614;13.496;2023-02-11T07:06:52;28.42;;;23.58;;
26696;SDS011;14312;52.614;13.496;2023-02-11T07:09:38;29.08;;;24.10;;
26696;SDS011;14312;52.614;13.496;2023-02-11T07:12:24;26.15;;;21.98;;
26696;SDS011;14312;52.614;13.496;2023-02-11T07:15:10;24.73;;;20.10;;
26696;SDS011;14312;52.614;13.496;2023-02-11T07:17:56;26.40;;;22.42;;
26696;SDS011;14312;52.614;13.496;2023-02-11T07:20:42;28.40;;;23.30;;
26696;SDS011;14312;52.614;13.496;2023-02-11T07:23:28;27.33;;;21.95;;
26696;SDS011;14312;52.614;13.496;2023-02-11T07:26:15;26.75;;;21.73;;
26696;SDS011;14312;52.614;13.496;2023-02-11T07:29:03;23.85;;;20.90;;
26696;SDS011;14312;52.614;13.496;2023-02-11T07:31:49;26.58;;;21.77;;
26696;SDS011;14312;52.614;13.496;2023-02-11T07:34:35;26.90;;;21.27;;
26696;SDS011;14312;52.614;13.496;2023-02-11T07:37:21;24.58;;;20.08;;
26696;SDS011;14312;52.614;13.496;2023-02-11T07:40:07;26.35;;;21.27;;
26696;SDS011;14312;52.614;13.496;2023-02-11T07:42:54;25.02;;;20.08;;
26696;SDS011;14312;52.614;13.496;2023-02-11T07:45:40;24.55;;;21.52;;
26696;SDS011;14312;52.614;13.496;2023-02-11T07:48:26;23.48;;;19.67;;
26696;SDS011;14312;52.614;13.496;2023-02-11T07:51:16;23.70;;;20.42;;
26696;SDS011;14312;52.614;13.496;2023-02-11T07:54:04;27.60;;;22.23;;
26696;SDS011;14312;52.614;13.496;2023-02-11T07:56:50;25.63;;;22.40;;
26696;SDS011;14312;52.614;13.496;2023-02-11T07:59:36;27.17;;;22.20;;
26696;SDS011;14312;52.614;13.496;2023-02-11T08:02:22;24.98;;;20.73;;
26696;SDS011;14312;52.614;13.496;2023-02-11T08:05:08;23.95;;;20.67;;
26696;SDS011;14312;52.614;13.496;2023-02-11T08:07:54;22.17;;;19.77;;
26696;SDS011;14312;52.614;13.496;2023-02-11T08:10:39;20.48;;;17.75;;
26696;SDS011;14312;52.614;13.496;2023-02-11T08:13:25;23.00;;;19.45;;
26696;SDS011;14312;52.614;13.496;2023-02-11T08:16:19;21.83;;;19.17;;
26696;SDS011;14312;52.614;13.496;2023-02-11T08:19:12;25.08;;;19.70;;
26696;SDS011;14312;52.614;13.496;2023-02-11T08:21:59;25.25;;;20.38;;
26696;SDS011;14312;52.614;13.496;2023-02-11T08:24:45;22.02;;;18.35;;
26696;SDS011;14312;52.614;13.496;2023-02-11T08:27:31;25.02;;;20.60;;
26696;SDS011;14312;52.614;13.496;2023-02-11T08:30:17;21.52;;;17.98;;
26696;SDS011;14312;52.614;13.496;2023-02-11T08:33:03;22.30;;;17.92;;
26696;SDS011;14312;52.614;13.496;2023-02-11T08:35:49;20.77;;;18.33;;
26696;SDS011;14312;52.614;13.496;2023-02-11T08:38:35;20.73;;;18.27;;
26696;SDS011;14312;52.614;13.496;2023-02-11T08:41:21;23.15;;;18.25;;
26696;SDS011;14312;52.614;13.496;2023-02-11T08:44:07;22.45;;;19.05;;
26696;SDS011;14312;52.614;13.496;2023-02-11T08:46:53;23.45;;;19.08;;
26696;SDS011;14312;52.614;13.496;2023-02-11T08:49:39;21.35;;;18.90;;
26696;SDS011;14312;52.614;13.496;2023-02-11T08:52:26;23.52;;;19.17;;
26696;SDS011;14312;52.614;13.496;2023-02-11T08:55:12;22.10;;;19.33;;
26696;SDS011;14312;52.614;13.496;2023-02-11T08:57:58;23.55;;;19.63;;
26696;SDS011;14312;52.614;13.496;2023-02-11T09:00:44;22.17;;;19.73;;
26696;SDS011;14312;52.614;13.496;2023-02-11T09:03:30;23.77;;;20.30;;
26696;SDS011;14312;52.614;13.496;2023-02-11T09:06:16;22.55;;;20.08;;
26696;SDS011;14312;52.614;13.496;2023-02-11T09:09:03;22.00;;;18.75;;
26696;SDS011;14312;52.614;13.496;2023-02-11T09:11:49;23.45;;;20.20;;
26696;SDS011;14312;52.614;13.496;2023-02-11T09:14:35;22.50;;;19.25;;
26696;SDS011;14312;52.614;13.496;2023-02-11T09:17:21;23.65;;;19.40;;
26696;SDS011;14312;52.614;13.496;2023-02-11T09:20:07;26.48;;;19.50;;
26696;SDS011;14312;52.614;13.496;2023-02-11T09:22:55;23.65;;;18.83;;
26696;SDS011;14312;52.614;13.496;2023-02-11T09:25:42;22.52;;;17.92;;
26696;SDS011;14312;52.614;13.496;2023-02-11T09:28:28;21.17;;;18.17;;
26696;SDS011;14312;52.614;13.496;2023-02-11T09:31:15;19.33;;;16.85;;
26696;SDS011;14312;52.614;13.496;2023-02-11T09:34:05;19.15;;;17.13;;
26696;SDS011;14312;52.614;13.496;2023-02-11T09:36:52;18.20;;;16.27;;
26696;SDS011;14312;52.614;13.496;2023-02-11T09:39:38;21.05;;;18.42;;
26696;SDS011;14312;52.614;13.496;2023-02-11T09:45:25;18.90;;;15.77;;
26696;SDS011;14312;52.614;13.496;2023-02-11T09:48:14;19.33;;;16.45;;
26696;SDS011;14312;52.614;13.496;2023-02-11T09:51:02;17.42;;;15.10;;
26696;SDS011;14312;52.614;13.496;2023-02-11T09:53:50;17.88;;;15.20;;
26696;SDS011;14312;52.614;13.496;2023-02-11T09:56:42;18.33;;;15.90;;
26696;SDS011;14312;52.614;13.496;2023-02-11T09:59:28;17.48;;;15.05;;
26696;SDS011;14312;52.614;13.496;2023-02-11T10:02:23;18.77;;;15.05;;
26696;SDS011;14312;52.614;13.496;2023-02-11T10:08:36;17.58;;;14.70;;
26696;SDS011;14312;52.614;13.496;2023-02-11T10:24:09;17.55;;;14.60;;
26696;SDS011;14312;52.614;13.496;2023-02-11T10:26:56;16.98;;;15.30;;
26696;SDS011;14312;52.614;13.496;2023-02-11T10:29:45;18.08;;;14.90;;
26696;SDS011;14312;52.614;13.496;2023-02-11T10:35:48;16.33;;;14.27;;
26696;SDS011;14312;52.614;13.496;2023-02-11T10:38:35;15.15;;;13.55;;
26696;SDS011;14312;52.614;13.496;2023-02-11T10:41:23;15.45;;;13.88;;
26696;SDS011;14312;52.614;13.496;2023-02-11T10:44:26;15.75;;;13.73;;
26696;SDS011;14312;52.614;13.496;2023-02-11T10:47:22;15.32;;;13.18;;
26696;SDS011;14312;52.614;13.496;2023-02-11T10:50:21;14.95;;;13.32;;
26696;SDS011;14312;52.614;13.496;2023-02-11T10:53:11;14.38;;;12.85;;
26696;SDS011;14312;52.614;13.496;2023-02-11T10:56:02;15.13;;;13.45;;
26696;SDS011;14312;52.614;13.496;2023-02-11T10:58:59;14.52;;;11.98;;
26696;SDS011;14312;52.614;13.496;2023-02-11T11:01:50;12.93;;;11.35;;
26696;SDS011;14312;52.614;13.496;2023-02-11T11:04:47;12.68;;;11.38;;
26696;SDS011;14312;52.614;13.496;2023-02-11T11:07:33;12.10;;;10.90;;
26696;SDS011;14312;52.614;13.496;2023-02-11T11:10:30;11.75;;;10.55;;
26696;SDS011;14312;52.614;13.496;2023-02-11T11:13:31;11.13;;;10.00;;
26696;SDS011;14312;52.614;13.496;2023-02-11T11:16:23;10.75;;;9.70;;
26696;SDS011;14312;52.614;13.496;2023-02-11T11:19:23;11.30;;;10.10;;
26696;SDS011;14312;52.614;13.496;2023-02-11T11:22:17;11.57;;;10.30;;
26696;SDS011;14312;52.614;13.496;2023-02-11T11:25:19;9.90;;;8.90;;
26696;SDS011;14312;52.614;13.496;2023-02-11T11:28:15;9.90;;;8.90;;
26696;SDS011;14312;52.614;13.496;2023-02-11T11:34:19;10.30;;;9.30;;
26696;SDS011;14312;52.614;13.496;2023-02-11T11:37:18;9.68;;;8.75;;
26696;SDS011;14312;52.614;13.496;2023-02-11T11:40:08;9.52;;;8.60;;
26696;SDS011;14312;52.614;13.496;2023-02-11T11:45:58;10.10;;;9.07;;
26696;SDS011;14312;52.614;13.496;2023-02-11T11:48:45;9.13;;;8.30;;
26696;SDS011;14312;52.614;13.496;2023-02-11T11:51:35;9.50;;;8.40;;
26696;SDS011;14312;52.614;13.496;2023-02-11T11:54:26;9.25;;;8.43;;
26696;SDS011;14312;52.614;13.496;2023-02-11T11:57:14;7.90;;;7.20;;
26696;SDS011;14312;52.614;13.496;2023-02-11T12:00:05;8.70;;;7.80;;
26696;SDS011;14312;52.614;13.496;2023-02-11T12:06:29;8.20;;;7.47;;
26696;SDS011;14312;52.614;13.496;2023-02-11T12:09:32;7.63;;;6.93;;
26696;SDS011;14312;52.614;13.496;2023-02-11T12:18:16;7.22;;;6.53;;
26696;SDS011;14312;52.614;13.496;2023-02-11T12:21:18;7.63;;;6.93;;
26696;SDS011;14312;52.614;13.496;2023-02-11T12:30:20;6.90;;;6.30;;
26696;SDS011;14312;52.614;13.496;2023-02-11T12:33:47;6.18;;;5.57;;
26696;SDS011;14312;52.614;13.496;2023-02-11T12:55:07;5.90;;;5.30;;
26696;SDS011;14312;52.614;13.496;2023-02-11T12:58:01;6.15;;;5.60;;
26696;SDS011;14312;52.614;13.496;2023-02-11T13:00:54;5.38;;;4.88;;
26696;SDS011;14312;52.614;13.496;2023-02-11T13:03:46;5.60;;;5.10;;
26696;SDS011;14312;52.614;13.496;2023-02-11T13:06:49;5.80;;;5.30;;
26696;SDS011;14312;52.614;13.496;2023-02-11T13:09:55;5.40;;;4.90;;
26696;SDS011;14312;52.614;13.496;2023-02-11T13:12:47;5.15;;;4.75;;
26696;SDS011;14312;52.614;13.496;2023-02-11T13:15:59;5.72;;;4.82;;
26696;SDS011;14312;52.614;13.496;2023-02-11T13:19:00;5.72;;;5.22;;
26696;SDS011;14312;52.614;13.496;2023-02-11T13:25:03;4.95;;;4.55;;
26696;SDS011;14312;52.614;13.496;2023-02-11T13:31:04;4.55;;;4.05;;
26696;SDS011;14312;52.614;13.496;2023-02-11T13:33:53;4.80;;;4.40;;
26696;SDS011;14312;52.614;13.496;2023-02-11T13:36:38;4.80;;;4.40;;
26696;SDS011;14312;52.614;13.496;2023-02-11T13:39:24;4.90;;;4.50;;
26696;SDS011;14312;52.614;13.496;2023-02-11T13:42:11;4.97;;;4.45;;
26696;SDS011;14312;52.614;13.496;2023-02-11T13:45:00;5.22;;;4.82;;
26696;SDS011;14312;52.614;13.496;2023-02-11T13:47:47;4.65;;;4.25;;
26696;SDS011;14312;52.614;13.496;2023-02-11T13:50:37;4.50;;;4.18;;
26696;SDS011;14312;52.614;13.496;2023-02-11T13:53:24;4.45;;;4.13;;
26696;SDS011;14312;52.614;13.496;2023-02-11T13:56:22;4.68;;;4.28;;
26696;SDS011;14312;52.614;13.496;2023-02-11T14:05:36;4.00;;;3.70;;
26696;SDS011;14312;52.614;13.496;2023-02-11T14:08:57;4.45;;;4.07;;
26696;SDS011;14312;52.614;13.496;2023-02-11T14:17:56;4.07;;;3.78;;
26696;SDS011;14312;52.614;13.496;2023-02-11T14:20:42;3.85;;;3.53;;
26696;SDS011;14312;52.614;13.496;2023-02-11T14:23:29;4.15;;;3.85;;
26696;SDS011;14312;52.614;13.496;2023-02-11T14:29:11;5.10;;;3.75;;
26696;SDS011;14312;52.614;13.496;2023-02-11T14:35:06;3.63;;;3.33;;
26696;SDS011;14312;52.614;13.496;2023-02-11T14:41:25;3.75;;;3.45;;
26696;SDS011;14312;52.614;13.496;2023-02-11T14:44:32;3.63;;;3.33;;
26696;SDS011;14312;52.614;13.496;2023-02-11T14:47:20;3.70;;;3.40;;
26696;SDS011;14312;52.614;13.496;2023-02-11T14:50:15;3.65;;;3.38;;
26696;SDS011;14312;52.614;13.496;2023-02-11T14:53:13;3.40;;;3.15;;
26696;SDS011;14312;52.614;13.496;2023-02-11T14:56:02;3.88;;;3.58;;
26696;SDS011;14312;52.614;13.496;2023-02-11T14:58:48;3.55;;;3.30;;
26696;SDS011;14312;52.614;13.496;2023-02-11T15:01:39;3.22;;;2.90;;
26696;SDS011;14312;52.614;13.496;2023-02-11T15:04:30;3.22;;;2.90;;
26696;SDS011;14312;52.614;13.496;2023-02-11T15:07:17;3.20;;;3.00;;
26696;SDS011;14312;52.614;13.496;2023-02-11T15:10:03;3.22;;;2.97;;
26696;SDS011;14312;52.614;13.496;2023-02-11T15:12:50;3.20;;;3.00;;
26696;SDS011;14312;52.614;13.496;2023-02-11T15:15:36;3.17;;;2.88;;
26696;SDS011;14312;52.614;13.496;2023-02-11T15:18:26;2.72;;;2.53;;
26696;SDS011;14312;52.614;13.496;2023-02-11T15:21:19;3.28;;;3.00;;
26696;SDS011;14312;52.614;13.496;2023-02-11T15:24:24;2.83;;;2.63;;
26696;SDS011;14312;52.614;13.496;2023-02-11T15:27:11;2.88;;;2.67;;
26696;SDS011;14312;52.614;13.496;2023-02-11T15:30:07;2.83;;;2.63;;
26696;SDS011;14312;52.614;13.496;2023-02-11T15:33:18;2.70;;;2.50;;
26696;SDS011;14312;52.614;13.496;2023-02-11T15:36:08;2.72;;;2.53;;
26696;SDS011;14312;52.614;13.496;2023-02-11T15:42:15;2.60;;;2.40;;
26696;SDS011;14312;52.614;13.496;2023-02-11T15:48:12;2.47;;;2.28;;
26696;SDS011;14312;52.614;13.496;2023-02-11T15:51:04;2.80;;;2.60;;
26696;SDS011;14312;52.614;13.496;2023-02-11T15:53:58;2.80;;;2.60;;
26696;SDS011;14312;52.614;13.496;2023-02-11T15:56:48;2.60;;;2.40;;
26696;SDS011;14312;52.614;13.496;2023-02-11T15:59:40;2.90;;;2.70;;
26696;SDS011;14312;52.614;13.496;2023-02-11T16:02:32;2.70;;;2.50;;
26696;SDS011;14312;52.614;13.496;2023-02-11T16:08:23;2.25;;;2.10;;
26696;SDS011;14312;52.614;13.496;2023-02-11T16:11:17;2.35;;;2.15;;
26696;SDS011;14312;52.614;13.496;2023-02-11T16:20:16;1.92;;;1.77;;
26696;SDS011;14312;52.614;13.496;2023-02-11T16:23:03;1.90;;;1.80;;
26696;SDS011;14312;52.614;13.496;2023-02-11T16:25:53;1.77;;;1.67;;
26696;SDS011;14312;52.614;13.496;2023-02-11T16:28:43;1.80;;;1.70;;
26696;SDS011;14312;52.614;13.496;2023-02-11T16:31:33;1.73;;;1.63;;
26696;SDS011;14312;52.614;13.496;2023-02-11T16:34:22;1.70;;;1.60;;
26696;SDS011;14312;52.614;13.496;2023-02-11T16:37:09;1.70;;;1.60;;
26696;SDS011;14312;52.614;13.496;2023-02-11T16:39:55;2.00;;;1.90;;
26696;SDS011;14312;52.614;13.496;2023-02-11T16:42:42;1.60;;;1.50;;
26696;SDS011;14312;52.614;13.496;2023-02-11T16:45:28;1.90;;;1.80;;
26696;SDS011;14312;52.614;13.496;2023-02-11T16:48:15;1.90;;;1.80;;
26696;SDS011;14312;52.614;13.496;2023-02-11T16:51:03;1.85;;;1.75;;
26696;SDS011;14312;52.614;13.496;2023-02-11T16:53:52;1.88;;;1.77;;
26696;SDS011;14312;52.614;13.496;2023-02-11T16:56:38;1.67;;;1.58;;
26696;SDS011;14312;52.614;13.496;2023-02-11T16:59:24;1.70;;;1.60;;
26696;SDS011;14312;52.614;13.496;2023-02-11T17:05:25;1.70;;;1.60;;
26696;SDS011;14312;52.614;13.496;2023-02-11T17:08:12;1.80;;;1.70;;
26696;SDS011;14312;52.614;13.496;2023-02-11T17:10:58;1.58;;;1.48;;
26696;SDS011;14312;52.614;13.496;2023-02-11T17:13:44;1.73;;;1.63;;
26696;SDS011;14312;52.614;13.496;2023-02-11T17:16:31;1.63;;;1.52;;
26696;SDS011;14312;52.614;13.496;2023-02-11T17:19:17;1.90;;;1.80;;
26696;SDS011;14312;52.614;13.496;2023-02-11T17:22:05;1.70;;;1.60;;
26696;SDS011;14312;52.614;13.496;2023-02-11T17:24:51;1.60;;;1.50;;
26696;SDS011;14312;52.614;13.496;2023-02-11T17:27:37;2.30;;;1.55;;
26696;SDS011;14312;52.614;13.496;2023-02-11T17:30:23;1.70;;;1.60;;
26696;SDS011;14312;52.614;13.496;2023-02-11T17:33:09;1.60;;;1.50;;
26696;SDS011;14312;52.614;13.496;2023-02-11T17:35:55;1.55;;;1.45;;
26696;SDS011;14312;52.614;13.496;2023-02-11T17:38:41;1.70;;;1.60;;
26696;SDS011;14312;52.614;13.496;2023-02-11T17:41:27;1.60;;;1.50;;
26696;SDS011;14312;52.614;13.496;2023-02-11T17:44:13;1.73;;;1.63;;
26696;SDS011;14312;52.614;13.496;2023-02-11T17:47:00;1.67;;;1.58;;
26696;SDS011;14312;52.614;13.496;2023-02-11T17:49:46;1.75;;;1.65;;
26696;SDS011;14312;52.614;13.496;2023-02-11T17:52:32;1.52;;;1.42;;
26696;SDS011;14312;52.614;13.496;2023-02-11T17:55:18;1.80;;;1.70;;
26696;SDS011;14312;52.614;13.496;2023-02-11T17:58:04;1.70;;;1.60;;
26696;SDS011;14312;52.614;13.496;2023-02-11T18:00:50;1.67;;;1.58;;
26696;SDS011;14312;52.614;13.496;2023-02-11T18:03:36;1.70;;;1.60;;
26696;SDS011;14312;52.614;13.496;2023-02-11T18:06:22;1.55;;;1.45;;
26696;SDS011;14312;52.614;13.496;2023-02-11T18:09:09;1.63;;;1.52;;
26696;SDS011;14312;52.614;13.496;2023-02-11T18:11:56;1.75;;;1.65;;
26696;SDS011;14312;52.614;13.496;2023-02-11T18:14:43;1.60;;;1.50;;
26696;SDS011;14312;52.614;13.496;2023-02-11T18:17:29;1.50;;;1.40;;
26696;SDS011;14312;52.614;13.496;2023-02-11T18:20:15;1.65;;;1.55;;
26696;SDS011;14312;52.614;13.496;2023-02-11T18:23:01;2.03;;;1.52;;
26696;SDS011;14312;52.614;13.496;2023-02-11T18:25:47;1.50;;;1.40;;
26696;SDS011;14312;52.614;13.496;2023-02-11T18:28:33;1.70;;;1.60;;
26696;SDS011;14312;52.614;13.496;2023-02-11T18:31:19;1.50;;;1.40;;